createdAt,value
2023-01-13T00:00:10.828Z,88.27
2023-01-13T00:02:41.882Z,88.48
2023-01-13T00:05:10.095Z,88.36
2023-01-13T00:07:38.536Z,88.28
2023-01-13T00:10:07.273Z,88.47
2023-01-13T00:12:34.341Z,88.19
2023-01-13T00:15:01.479Z,88.27
2023-01-13T00:17:28.736Z,88.09
2023-01-13T00:19:56.751Z,87.91
2023-01-13T00:22:26.104Z,88.04
2023-01-13T00:24:53.404Z,87.91
2023-01-13T00:27:20.415Z,87.75
2023-01-13T00:29:47.602Z,87.84
2023-01-13T00:32:20.300Z,87.64
2023-01-13T00:34:47.714Z,87.76
2023-01-13T00:37:15.439Z,87.89
2023-01-13T00:39:42.482Z,87.74
2023-01-13T00:42:28.128Z,87.46
2023-01-13T00:44:58.140Z,87.84
2023-01-13T00:47:46.560Z,87.62
2023-01-13T00:50:13.566Z,87.47
2023-01-13T00:52:45.841Z,87.49
2023-01-13T00:55:13.435Z,87.43
2023-01-13T00:57:54.822Z,87.47
2023-01-13T01:00:37.741Z,87.49
2023-01-13T01:03:15.908Z,87.45
2023-01-13T01:05:47.763Z,87.32
2023-01-13T01:08:14.784Z,87.54
2023-01-13T01:10:43.313Z,87.20
2023-01-13T01:13:30.932Z,87.21
2023-01-13T01:16:23.901Z,87.52
2023-01-13T01:18:58.807Z,87.40
2023-01-13T01:21:42.629Z,87.34
2023-01-13T01:24:18.732Z,87.31
2023-01-13T01:26:48.142Z,87.08
2023-01-13T01:29:15.800Z,87.10
2023-01-13T01:31:43.444Z,87.39
2023-01-13T01:34:13.660Z,87.34
2023-01-13T01:36:43.912Z,87.26
2023-01-13T01:39:10.975Z,86.86
2023-01-13T01:41:38.299Z,86.81
2023-01-13T01:44:42.514Z,87.05
2023-01-13T01:47:11.528Z,86.90
2023-01-13T01:49:39.444Z,86.72
2023-01-13T01:52:13.732Z,86.80
2023-01-13T01:55:05.827Z,86.45
2023-01-13T01:57:59.140Z,86.47
2023-01-13T02:00:44.033Z,86.20
2023-01-13T02:03:11.449Z,86.53
2023-01-13T02:05:39.343Z,86.54
2023-01-13T02:08:07.283Z,86.25
2023-01-13T02:10:34.410Z,86.30
2023-01-13T02:13:04.145Z,85.83
2023-01-13T02:16:13.417Z,85.64
2023-01-13T02:18:52.370Z,85.84
2023-01-13T02:21:25.787Z,85.72
2023-01-13T02:24:17.709Z,85.94
2023-01-13T02:27:10.900Z,85.53
2023-01-13T02:30:19.144Z,85.57
2023-01-13T02:32:54.924Z,85.20
2023-01-13T02:35:28.384Z,85.14
2023-01-13T02:37:57.135Z,85.21
2023-01-13T02:40:45.735Z,85.48
2023-01-13T02:43:47.795Z,85.08
2023-01-13T02:46:26.084Z,85.29
2023-01-13T02:48:55.004Z,85.21
2023-01-13T02:51:24.616Z,85.12
2023-01-13T02:53:59.898Z,85.15
2023-01-13T02:56:30.333Z,85.07
2023-01-13T02:58:58.768Z,84.93
2023-01-13T03:01:25.877Z,85.00
2023-01-13T03:03:53.134Z,84.97
2023-01-13T03:06:37.819Z,84.78
2023-01-13T03:09:23.183Z,84.63
2023-01-13T03:12:04.638Z,84.51
2023-01-13T03:14:40.684Z,84.90
2023-01-13T03:17:25.147Z,84.66
2023-01-13T03:20:08.361Z,84.62
2023-01-13T03:23:00.729Z,84.83
2023-01-13T03:25:32.763Z,84.65
2023-01-13T03:28:03.677Z,84.48
2023-01-13T03:30:53.361Z,84.12
2023-01-13T03:33:36.832Z,84.30
2023-01-13T03:36:08.713Z,84.33
2023-01-13T03:38:39.802Z,84.61
2023-01-13T03:41:14.025Z,84.44
2023-01-13T03:44:20.924Z,84.14
2023-01-13T03:47:21.727Z,84.19
2023-01-13T03:49:57.885Z,84.33
2023-01-13T03:52:47.160Z,84.08
2023-01-13T03:55:19.398Z,84.08
2023-01-13T03:57:55.097Z,83.82
2023-01-13T04:00:25.547Z,84.03
2023-01-13T04:03:03.511Z,83.75
2023-01-13T04:05:30.346Z,83.84
2023-01-13T04:08:00.221Z,83.91
2023-01-13T04:10:37.571Z,83.92
2023-01-13T04:13:11.195Z,83.78
2023-01-13T04:15:40.749Z,83.76
2023-01-13T04:18:13.554Z,83.84
2023-01-13T04:20:41.214Z,83.51
2023-01-13T04:23:19.262Z,83.47
2023-01-13T04:26:17.266Z,83.42
2023-01-13T04:28:50.059Z,83.84
2023-01-13T04:31:35.829Z,83.42
2023-01-13T04:34:08.751Z,83.67
2023-01-13T04:36:36.019Z,83.66
2023-01-13T04:39:06.101Z,83.54
2023-01-13T04:41:54.768Z,83.36
2023-01-13T04:44:24.209Z,83.43
2023-01-13T04:46:51.277Z,83.50
2023-01-13T04:49:28.676Z,83.56
2023-01-13T04:51:55.743Z,83.54
2023-01-13T04:54:27.840Z,83.69
2023-01-13T04:56:54.834Z,83.23
2023-01-13T04:59:30.297Z,83.55
2023-01-13T05:02:08.643Z,83.82
2023-01-13T05:04:38.741Z,83.39
2023-01-13T05:07:07.089Z,83.74
2023-01-13T05:09:33.966Z,83.41
2023-01-13T05:12:22.633Z,83.47
2023-01-13T05:15:12.955Z,83.57
2023-01-13T05:17:40.428Z,83.47
2023-01-13T05:20:10.421Z,83.52
2023-01-13T05:22:55.900Z,83.35
2023-01-13T05:25:24.534Z,83.96
2023-01-13T05:27:53.538Z,83.81
2023-01-13T05:30:21.787Z,83.42
2023-01-13T05:32:48.791Z,83.52
2023-01-13T05:35:16.264Z,83.33
2023-01-13T05:37:44.229Z,83.38
2023-01-13T05:40:32.440Z,83.24
2023-01-13T05:43:25.677Z,83.02
2023-01-13T05:46:01.032Z,83.16
2023-01-13T05:48:31.985Z,83.09
2023-01-13T05:50:58.894Z,83.32
2023-01-13T05:53:25.794Z,82.98
2023-01-13T05:55:53.054Z,82.97
2023-01-13T05:58:21.210Z,82.85
2023-01-13T06:00:48.215Z,82.87
2023-01-13T06:03:16.236Z,83.17
2023-01-13T06:05:43.273Z,83.20
2023-01-13T06:08:09.999Z,83.30
2023-01-13T06:10:39.288Z,83.34
2023-01-13T06:13:06.046Z,83.35
2023-01-13T06:15:33.002Z,83.94
2023-01-13T06:18:03.011Z,84.08
2023-01-13T06:20:32.757Z,84.23
2023-01-13T06:22:59.734Z,84.47
2023-01-13T06:25:46.587Z,84.80
2023-01-13T06:28:13.314Z,84.73
2023-01-13T06:30:43.922Z,84.78
2023-01-13T06:33:14.326Z,84.83
2023-01-13T06:35:45.597Z,84.81
2023-01-13T06:38:14.270Z,84.88
2023-01-13T06:40:42.471Z,84.81
2023-01-13T06:43:16.571Z,84.96
2023-01-13T06:45:54.885Z,85.10
2023-01-13T06:48:33.790Z,85.23
2023-01-13T06:51:05.371Z,85.19
2023-01-13T06:53:32.359Z,85.63
2023-01-13T06:55:59.569Z,85.66
2023-01-13T06:58:26.447Z,85.57
2023-01-13T07:00:53.748Z,85.80
2023-01-13T07:03:20.609Z,86.09
2023-01-13T07:05:54.977Z,85.89
2023-01-13T07:08:23.011Z,86.17
2023-01-13T07:10:50.053Z,86.37
2023-01-13T07:13:35.616Z,86.33
2023-01-13T07:16:05.826Z,86.46
2023-01-13T07:18:34.469Z,86.74
2023-01-13T07:21:11.043Z,86.87
2023-01-13T07:23:41.901Z,87.07
2023-01-13T07:26:09.609Z,86.86
2023-01-13T07:28:36.805Z,87.10
2023-01-13T07:31:03.533Z,87.35
2023-01-13T07:33:33.519Z,87.31
2023-01-13T07:36:02.892Z,87.45
2023-01-13T07:38:30.920Z,87.35
2023-01-13T07:40:57.678Z,87.37
2023-01-13T07:43:33.782Z,87.23
2023-01-13T07:46:05.388Z,87.35
2023-01-13T07:48:33.745Z,87.77
2023-01-13T07:51:05.283Z,87.68
2023-01-13T07:53:32.037Z,87.79
2023-01-13T07:55:59.431Z,87.63
2023-01-13T07:58:27.484Z,87.50
2023-01-13T08:00:54.990Z,87.60
2023-01-13T08:03:22.574Z,87.71
2023-01-13T08:05:49.286Z,87.60
2023-01-13T08:08:18.384Z,87.45
2023-01-13T08:10:45.239Z,87.37
2023-01-13T08:13:20.104Z,87.38
2023-01-13T08:15:52.741Z,87.28
2023-01-13T08:18:22.452Z,87.03
2023-01-13T08:20:52.826Z,86.87
2023-01-13T08:23:20.480Z,87.05
2023-01-13T08:25:47.581Z,86.76
2023-01-13T08:28:15.898Z,86.57
2023-01-13T08:30:42.846Z,86.35
2023-01-13T08:33:11.307Z,86.19
2023-01-13T08:35:39.673Z,85.99
2023-01-13T08:38:07.163Z,85.89
2023-01-13T08:40:34.675Z,85.58
2023-01-13T08:43:03.385Z,85.28
2023-01-13T08:45:30.646Z,85.51
2023-01-13T08:47:59.141Z,85.06
2023-01-13T08:50:26.785Z,84.92
2023-01-13T08:52:54.029Z,84.81
2023-01-13T08:55:21.182Z,84.63
2023-01-13T08:57:48.315Z,84.58
2023-01-13T09:00:21.974Z,84.50
2023-01-13T09:02:49.233Z,84.14
2023-01-13T09:05:17.864Z,84.23
2023-01-13T09:07:46.974Z,84.08
2023-01-13T09:10:13.818Z,83.84
2023-01-13T09:12:59.722Z,83.90
2023-01-13T09:15:26.844Z,83.84
2023-01-13T09:17:53.773Z,83.70
2023-01-13T09:20:20.727Z,83.52
2023-01-13T09:22:47.471Z,83.44
2023-01-13T09:25:14.172Z,83.49
2023-01-13T09:27:40.941Z,83.50
2023-01-13T09:30:08.865Z,83.31
2023-01-13T09:32:35.849Z,83.23
2023-01-13T09:35:06.531Z,83.17
2023-01-13T09:37:36.301Z,83.23
2023-01-13T09:40:13.246Z,83.06
2023-01-13T09:43:00.558Z,83.05
2023-01-13T09:45:35.988Z,83.15
2023-01-13T09:48:24.314Z,83.16
2023-01-13T09:50:55.813Z,83.16
2023-01-13T09:53:26.831Z,83.06
2023-01-13T09:55:53.976Z,82.74
2023-01-13T09:58:21.251Z,83.10
2023-01-13T10:01:12.688Z,82.73
2023-01-13T10:03:42.238Z,82.79
2023-01-13T10:06:24.641Z,82.49
2023-01-13T10:08:51.365Z,82.66
2023-01-13T10:11:41.939Z,82.59
2023-01-13T10:14:20.310Z,82.37
2023-01-13T10:17:04.148Z,82.16
2023-01-13T10:19:40.358Z,82.03
2023-01-13T10:22:42.214Z,82.07
2023-01-13T10:25:20.501Z,81.62
2023-01-13T10:27:51.892Z,81.57
2023-01-13T10:30:31.412Z,81.45
2023-01-13T10:33:10.547Z,81.24
2023-01-13T10:36:07.943Z,81.30
2023-01-13T10:38:34.622Z,80.93
2023-01-13T10:41:06.620Z,81.12
2023-01-13T10:43:33.360Z,80.89
2023-01-13T10:46:04.289Z,80.53
2023-01-13T10:48:43.100Z,80.53
2023-01-13T10:51:31.029Z,80.19
2023-01-13T10:54:14.866Z,80.49
2023-01-13T10:56:43.868Z,80.14
2023-01-13T10:59:19.720Z,79.70
2023-01-13T11:02:03.798Z,79.67
2023-01-13T11:04:41.023Z,79.60
2023-01-13T11:07:31.071Z,79.49
2023-01-13T11:10:17.209Z,79.08
2023-01-13T11:12:54.355Z,78.81
2023-01-13T11:15:26.689Z,78.45
2023-01-13T11:18:00.833Z,78.53
2023-01-13T11:20:34.346Z,77.94
2023-01-13T11:23:04.456Z,77.93
2023-01-13T11:25:43.664Z,77.63
2023-01-13T11:28:44.942Z,77.47
2023-01-13T11:31:19.503Z,77.12
2023-01-13T11:33:57.620Z,77.24
2023-01-13T11:36:46.144Z,76.94
2023-01-13T11:39:53.942Z,76.51
2023-01-13T11:42:33.566Z,76.50
2023-01-13T11:45:19.781Z,76.10
2023-01-13T11:47:48.796Z,75.65
2023-01-13T11:50:45.133Z,75.12
2023-01-13T11:53:30.018Z,74.94
2023-01-13T11:56:15.524Z,74.34
2023-01-13T11:59:19.843Z,73.53
2023-01-13T12:01:58.738Z,73.06
2023-01-13T12:04:33.350Z,72.54
2023-01-13T12:07:20.221Z,72.05
2023-01-13T12:10:15.514Z,71.84
2023-01-13T12:12:54.744Z,71.63
2023-01-13T12:15:21.858Z,71.48
2023-01-13T12:18:07.579Z,70.78
2023-01-13T12:20:58.649Z,70.56
2023-01-13T12:23:58.248Z,70.11
2023-01-13T12:26:25.023Z,69.83
2023-01-13T12:29:25.592Z,69.15
2023-01-13T12:31:52.619Z,69.08
2023-01-13T12:34:31.180Z,69.26
2023-01-13T12:37:29.585Z,69.04
2023-01-13T12:40:19.998Z,68.15
2023-01-13T12:43:19.861Z,67.29
2023-01-13T12:45:46.603Z,67.16
2023-01-13T12:48:53.327Z,67.06
2023-01-13T12:51:24.869Z,66.81
2023-01-13T12:53:52.006Z,66.25
2023-01-13T12:56:24.690Z,65.82
2023-01-13T12:58:51.438Z,65.08
2023-01-13T13:01:18.847Z,64.42
2023-01-13T13:04:08.501Z,64.51
2023-01-13T13:06:36.810Z,64.40
2023-01-13T13:09:28.529Z,64.04
2023-01-13T13:11:58.244Z,63.67
2023-01-13T13:14:48.274Z,64.08
2023-01-13T13:17:25.414Z,64.04
2023-01-13T13:19:52.345Z,64.10
2023-01-13T13:22:38.238Z,64.11
2023-01-13T13:25:04.941Z,63.65
2023-01-13T13:27:31.603Z,63.55
2023-01-13T13:30:02.672Z,63.78
2023-01-13T13:32:54.511Z,63.32
2023-01-13T13:35:43.434Z,63.13
2023-01-13T13:39:07.392Z,63.18
2023-01-13T13:41:54.888Z,63.35
2023-01-13T13:44:58.440Z,63.28
2023-01-13T13:47:25.296Z,63.37
2023-01-13T13:49:54.563Z,63.37
2023-01-13T13:52:26.387Z,63.70
2023-01-13T13:54:56.907Z,63.52
2023-01-13T13:57:33.075Z,63.99
2023-01-13T14:00:00.290Z,63.92
2023-01-13T14:02:30.206Z,64.06
2023-01-13T14:05:20.693Z,63.64
2023-01-13T14:08:00.676Z,63.42
2023-01-13T14:10:36.436Z,63.71
2023-01-13T14:13:13.639Z,63.55
2023-01-13T14:15:41.255Z,63.68
2023-01-13T14:18:17.572Z,63.75
2023-01-13T14:20:55.410Z,63.67
2023-01-13T14:26:27.349Z,63.59
2023-01-13T14:28:55.377Z,63.64
2023-01-13T14:31:22.349Z,63.32
2023-01-13T14:33:51.087Z,63.27
2023-01-13T14:36:20.695Z,63.28
2023-01-13T14:38:49.973Z,63.63
2023-01-13T14:41:26.115Z,63.34
2023-01-13T14:43:55.953Z,63.63
2023-01-13T14:46:25.414Z,63.57
2023-01-13T14:48:54.677Z,63.53
2023-01-13T14:51:24.050Z,63.29
2023-01-13T14:53:51.198Z,63.24
2023-01-13T14:56:47.401Z,63.22
2023-01-13T14:59:51.726Z,63.28
2023-01-13T15:02:31.120Z,63.14
2023-01-13T15:05:18.960Z,63.08
2023-01-13T15:08:15.044Z,62.66
2023-01-13T15:11:05.326Z,62.73
2023-01-13T15:13:33.540Z,62.21
2023-01-13T15:16:21.942Z,62.19
2023-01-13T15:18:48.948Z,62.51
2023-01-13T15:21:16.356Z,62.32
2023-01-13T15:23:43.736Z,61.94
2023-01-13T15:26:20.052Z,62.01
2023-01-13T15:28:47.254Z,62.24
2023-01-13T15:31:14.016Z,62.01
2023-01-13T15:33:40.872Z,61.71
2023-01-13T15:36:17.814Z,61.49
2023-01-13T15:38:44.522Z,61.66
2023-01-13T15:41:11.762Z,61.48
2023-01-13T15:43:58.099Z,61.73
2023-01-13T15:46:40.124Z,61.41
2023-01-13T15:49:14.223Z,61.65
2023-01-13T15:51:41.061Z,61.62
2023-01-13T15:54:08.673Z,61.72
2023-01-13T15:56:39.071Z,61.65
2023-01-13T15:59:14.623Z,61.28
2023-01-13T16:01:41.439Z,61.18
2023-01-13T16:04:09.635Z,61.44
2023-01-13T16:06:37.328Z,61.18
2023-01-13T16:09:04.985Z,60.88
2023-01-13T16:11:31.801Z,61.18
2023-01-13T16:13:58.768Z,61.19
2023-01-13T16:16:29.644Z,61.14
2023-01-13T16:18:56.611Z,61.34
2023-01-13T16:21:23.957Z,61.07
2023-01-13T16:23:53.251Z,61.13
2023-01-13T16:26:33.041Z,61.22
2023-01-13T16:29:01.184Z,61.38
2023-01-13T16:31:32.110Z,61.21
2023-01-13T16:34:01.093Z,61.20
2023-01-13T16:36:29.890Z,61.15
2023-01-13T16:38:57.524Z,61.33
2023-01-13T16:41:27.013Z,61.23
2023-01-13T16:43:53.985Z,61.57
2023-01-13T16:46:26.203Z,61.47
2023-01-13T16:48:54.992Z,61.40
2023-01-13T16:51:25.306Z,61.78
2023-01-13T16:53:52.272Z,61.73
2023-01-13T16:56:27.675Z,61.87
2023-01-13T16:58:56.933Z,61.79
2023-01-13T17:01:28.219Z,62.10
2023-01-13T17:03:55.826Z,62.06
2023-01-13T17:06:33.634Z,61.89
2023-01-13T17:09:21.434Z,62.21
2023-01-13T17:11:48.431Z,62.11
2023-01-13T17:14:18.991Z,62.20
2023-01-13T17:16:47.465Z,62.32
2023-01-13T17:19:14.854Z,62.09
2023-01-13T17:21:42.387Z,62.32
2023-01-13T17:24:10.742Z,62.06
2023-01-13T17:26:40.211Z,62.32
2023-01-13T17:29:10.305Z,62.41
2023-01-13T17:31:37.386Z,62.58
2023-01-13T17:34:07.593Z,62.53
2023-01-13T17:36:34.602Z,63.19
2023-01-13T17:39:01.658Z,63.18
2023-01-13T17:41:28.705Z,63.56
2023-01-13T17:43:55.749Z,64.22
2023-01-13T17:46:23.236Z,64.34
2023-01-13T17:48:51.213Z,64.47
2023-01-13T17:51:19.337Z,64.64
2023-01-13T17:53:46.671Z,64.68
2023-01-13T17:56:14.932Z,64.64
2023-01-13T17:58:41.918Z,65.01
2023-01-13T18:01:10.902Z,64.93
2023-01-13T18:03:38.422Z,65.10
2023-01-13T18:06:06.869Z,65.33
2023-01-13T18:08:33.887Z,65.78
2023-01-13T18:11:02.889Z,65.74
2023-01-13T18:13:31.699Z,65.54
2023-01-13T18:16:13.219Z,65.79
2023-01-13T18:18:43.085Z,65.83
2023-01-13T18:21:37.709Z,66.10
2023-01-13T18:24:24.198Z,66.76
2023-01-13T18:27:10.027Z,67.23
2023-01-13T18:29:38.184Z,66.77
2023-01-13T18:32:07.651Z,66.84
2023-01-13T18:34:37.940Z,66.51
2023-01-13T18:37:06.297Z,66.47
2023-01-13T18:39:33.275Z,66.66
2023-01-13T18:42:19.148Z,66.68
2023-01-13T18:44:48.454Z,66.36
2023-01-13T18:47:15.475Z,66.66
2023-01-13T18:49:42.464Z,66.69
2023-01-13T18:52:09.249Z,66.43
2023-01-13T18:54:36.191Z,66.64
2023-01-13T18:57:03.231Z,66.75
2023-01-13T18:59:31.199Z,66.72
2023-01-13T19:01:58.752Z,66.59
2023-01-13T19:04:25.860Z,66.64
2023-01-13T19:07:00.195Z,66.72
2023-01-13T19:09:28.879Z,66.87
2023-01-13T19:12:02.411Z,66.79
2023-01-13T19:14:40.456Z,66.87
2023-01-13T19:17:10.209Z,67.01
2023-01-13T19:19:50.994Z,66.64
2023-01-13T19:22:23.160Z,66.90
2023-01-13T19:24:50.744Z,67.20
2023-01-13T19:27:19.271Z,67.07
2023-01-13T19:29:52.382Z,67.18
2023-01-13T19:32:21.955Z,67.15
2023-01-13T19:34:51.235Z,66.83
2023-01-13T19:37:19.101Z,67.11
2023-01-13T19:39:46.034Z,67.14
2023-01-13T19:42:32.944Z,66.95
2023-01-13T19:45:18.441Z,66.91
2023-01-13T19:47:46.053Z,67.02
2023-01-13T19:50:14.198Z,67.06
2023-01-13T19:52:42.494Z,66.80
2023-01-13T19:55:11.803Z,67.07
2023-01-13T19:57:41.163Z,66.84
2023-01-13T20:00:10.059Z,66.71
2023-01-13T20:02:44.991Z,66.96
2023-01-13T20:05:15.300Z,66.92
2023-01-13T20:07:42.059Z,66.94
2023-01-13T20:10:09.471Z,67.06
2023-01-13T20:12:36.746Z,67.06
2023-01-13T20:15:03.996Z,67.04
2023-01-13T20:17:30.923Z,66.88
2023-01-13T20:19:59.072Z,66.95
2023-01-13T20:22:25.800Z,67.17
2023-01-13T20:24:55.445Z,66.94
2023-01-13T20:27:24.133Z,67.08
2023-01-13T20:30:08.816Z,67.39
2023-01-13T20:32:38.410Z,67.51
2023-01-13T20:38:12.341Z,67.46
2023-01-13T20:40:42.538Z,67.38
2023-01-13T20:43:12.364Z,67.14
2023-01-13T20:45:40.628Z,67.53
2023-01-13T20:48:19.890Z,67.56
2023-01-13T20:51:03.186Z,67.57
2023-01-13T20:53:48.453Z,67.56
2023-01-13T20:56:24.642Z,67.69
2023-01-13T20:58:58.677Z,67.58
2023-01-13T21:01:26.959Z,67.75
2023-01-13T21:03:59.078Z,67.47
2023-01-13T21:06:29.483Z,67.69
2023-01-13T21:08:56.783Z,67.66
2023-01-13T21:11:44.509Z,67.85
2023-01-13T21:14:37.936Z,67.77
2023-01-13T21:17:05.868Z,67.66
2023-01-13T21:19:36.275Z,67.82
2023-01-13T21:22:04.182Z,67.64
2023-01-13T21:24:33.465Z,67.84
2023-01-13T21:27:00.553Z,67.80
2023-01-13T21:29:27.560Z,67.74
2023-01-13T21:31:54.703Z,67.62
2023-01-13T21:34:21.763Z,67.81
2023-01-13T21:36:48.438Z,67.74
2023-01-13T21:39:19.217Z,67.67
2023-01-13T21:42:04.701Z,67.81
2023-01-13T21:44:50.425Z,67.97
2023-01-13T21:47:37.528Z,67.92
2023-01-13T21:50:07.525Z,68.02
2023-01-13T21:52:34.383Z,68.01
2023-01-13T21:55:19.937Z,68.11
2023-01-13T21:57:49.848Z,68.06
2023-01-13T22:00:17.742Z,68.04
2023-01-13T22:02:45.035Z,67.96
2023-01-13T22:05:13.283Z,68.09
2023-01-13T22:07:40.777Z,68.06
2023-01-13T22:10:10.854Z,68.00
2023-01-13T22:12:37.659Z,68.23
2023-01-13T22:15:05.015Z,68.18
2023-01-13T22:17:32.468Z,68.39
2023-01-13T22:20:00.038Z,68.44
2023-01-13T22:22:27.833Z,68.43
2023-01-13T22:24:55.098Z,68.47
2023-01-13T22:27:24.935Z,68.69
2023-01-13T22:29:52.811Z,68.38
2023-01-13T22:32:20.529Z,68.88
2023-01-13T22:34:48.099Z,68.66
2023-01-13T22:37:15.361Z,68.72
2023-01-13T22:39:42.112Z,68.56
2023-01-13T22:42:10.255Z,68.48
2023-01-13T22:44:37.061Z,68.45
2023-01-13T22:47:04.096Z,68.59
2023-01-13T22:49:30.814Z,68.44
2023-01-13T22:51:57.552Z,68.55
2023-01-13T22:54:24.251Z,68.62
2023-01-13T22:56:50.976Z,68.49
2023-01-13T22:59:17.734Z,68.49
2023-01-13T23:01:44.506Z,68.68
2023-01-13T23:04:13.500Z,68.73
2023-01-13T23:06:40.841Z,68.73
2023-01-13T23:09:07.829Z,69.20
2023-01-13T23:11:35.363Z,69.20
2023-01-13T23:14:05.423Z,69.18
2023-01-13T23:16:35.022Z,69.35
2023-01-13T23:19:01.836Z,69.38
2023-01-13T23:21:30.929Z,69.35
2023-01-13T23:23:58.822Z,69.38
2023-01-13T23:26:26.931Z,69.29
2023-01-13T23:28:53.789Z,69.37
2023-01-13T23:31:22.305Z,69.22
2023-01-13T23:33:49.335Z,69.17
2023-01-13T23:36:19.008Z,69.43
2023-01-13T23:38:45.871Z,69.59
2023-01-13T23:41:15.680Z,69.24
2023-01-13T23:43:42.435Z,69.38
2023-01-13T23:46:12.581Z,69.29
2023-01-13T23:48:39.749Z,69.66
2023-01-13T23:51:11.145Z,69.30
2023-01-13T23:53:40.544Z,69.66
2023-01-13T23:56:11.445Z,69.77
2023-01-13T23:58:38.106Z,70.08
